sensor_id;sensor_type;location;lat;lon;timestamp;pressure;altitude;pressure_sealevel;temperature;humidity
44138;BME280;29800;55.942;37.314;2023-02-21T20:52:15;97999.06;;;-9.92;47.95
44138;BME280;29800;55.942;37.314;2023-02-21T20:54:42;97996.94;;;-9.89;47.65
44138;BME280;29800;55.942;37.314;2023-02-21T20:57:08;97988.66;;;-9.94;47.29
44138;BME280;29800;55.942;37.314;2023-02-21T20:59:37;97997.22;;;-10.00;48.18
44138;BME280;29800;55.942;37.314;2023-02-21T21:02:04;98001.03;;;-10.03;47.95
44138;BME280;29800;55.942;37.314;2023-02-21T21:04:32;98004.34;;;-10.01;47.87
44138;BME280;29800;55.942;37.314;2023-02-21T21:07:05;98005.16;;;-10.08;48.31
44138;BME280;29800;55.942;37.314;2023-02-21T21:09:31;98003.16;;;-10.14;47.96
44138;BME280;29800;55.942;37.314;2023-02-21T21:12:08;98009.25;;;-10.22;48.71
44138;BME280;29800;55.942;37.314;2023-02-21T21:14:39;98008.41;;;-10.31;48.15
44138;BME280;29800;55.942;37.314;2023-02-21T21:17:11;98010.75;;;-10.36;49.07
44138;BME280;29800;55.942;37.314;2023-02-21T21:19:40;98013.69;;;-10.39;48.43
44138;BME280;29800;55.942;37.314;2023-02-21T21:22:10;98022.63;;;-10.40;48.29
44138;BME280;29800;55.942;37.314;2023-02-21T21:24:37;98030.38;;;-10.39;48.45
44138;BME280;29800;55.942;37.314;2023-02-21T21:27:03;98024.28;;;-10.39;48.23
44138;BME280;29800;55.942;37.314;2023-02-21T21:29:31;98026.56;;;-10.44;49.22
44138;BME280;29800;55.942;37.314;2023-02-21T21:31:57;98032.03;;;-10.46;48.91
44138;BME280;29800;55.942;37.314;2023-02-21T21:34:25;98038.28;;;-10.47;48.65
44138;BME280;29800;55.942;37.314;2023-02-21T21:36:55;98038.75;;;-10.51;48.86
44138;BME280;29800;55.942;37.314;2023-02-21T21:39:22;98039.53;;;-10.59;48.53
44138;BME280;29800;55.942;37.314;2023-02-21T21:41:54;98046.44;;;-10.66;49.79
44138;BME280;29800;55.942;37.314;2023-02-21T21:44:25;98049.41;;;-10.69;49.31
44138;BME280;29800;55.942;37.314;2023-02-21T21:46:52;98042.91;;;-10.49;48.46
44138;BME280;29800;55.942;37.314;2023-02-21T21:49:20;98054.72;;;-10.35;48.35
44138;BME280;29800;55.942;37.314;2023-02-21T21:51:48;98062.72;;;-10.53;47.43
44138;BME280;29800;55.942;37.314;2023-02-21T21:54:17;98065.63;;;-10.64;47.52
44138;BME280;29800;55.942;37.314;2023-02-21T21:56:45;98070.91;;;-10.91;48.54
44138;BME280;29800;55.942;37.314;2023-02-21T21:59:15;98083.53;;;-11.02;48.60
44138;BME280;29800;55.942;37.314;2023-02-21T22:01:43;98073.16;;;-11.22;49.54
44138;BME280;29800;55.942;37.314;2023-02-21T22:04:09;98077.84;;;-11.52;49.92
44138;BME280;29800;55.942;37.314;2023-02-21T22:06:39;98079.78;;;-11.72;50.58
44138;BME280;29800;55.942;37.314;2023-02-21T22:09:07;98081.06;;;-11.76;50.55
44138;BME280;29800;55.942;37.314;2023-02-21T22:11:34;98086.03;;;-11.73;50.60
44138;BME280;29800;55.942;37.314;2023-02-21T22:14:01;98081.13;;;-11.68;50.59
44138;BME280;29800;55.942;37.314;2023-02-21T22:16:56;98080.25;;;-11.58;50.62
44138;BME280;29800;55.942;37.314;2023-02-21T22:19:24;98083.56;;;-11.56;50.72
44138;BME280;29800;55.942;37.314;2023-02-21T22:21:51;98089.50;;;-11.54;50.70
44138;BME280;29800;55.942;37.314;2023-02-21T22:24:23;98086.88;;;-11.54;50.33
44138;BME280;29800;55.942;37.314;2023-02-21T22:26:53;98094.56;;;-11.61;50.76
44138;BME280;29800;55.942;37.314;2023-02-21T22:29:20;98088.09;;;-11.67;51.08
44138;BME280;29800;55.942;37.314;2023-02-21T22:31:48;98110.41;;;-11.61;50.81
44138;BME280;29800;55.942;37.314;2023-02-21T22:34:15;98103.34;;;-11.60;50.70
44138;BME280;29800;55.942;37.314;2023-02-21T22:36:53;98104.53;;;-11.55;50.66
44138;BME280;29800;55.942;37.314;2023-02-21T22:39:20;98101.47;;;-11.50;51.15
44138;BME280;29800;55.942;37.314;2023-02-21T22:41:47;98107.56;;;-11.50;50.93
44138;BME280;29800;55.942;37.314;2023-02-21T22:44:13;98107.03;;;-11.53;51.08
44138;BME280;29800;55.942;37.314;2023-02-21T22:46:45;98112.63;;;-11.56;51.24
44138;BME280;29800;55.942;37.314;2023-02-21T22:49:13;98107.63;;;-11.59;50.87
44138;BME280;29800;55.942;37.314;2023-02-21T22:51:41;98120.16;;;-11.61;51.09
44138;BME280;29800;55.942;37.314;2023-02-21T22:54:10;98117.59;;;-11.53;50.93
44138;BME280;29800;55.942;37.314;2023-02-21T22:56:39;98122.88;;;-11.53;51.29
44138;BME280;29800;55.942;37.314;2023-02-21T22:59:19;98119.84;;;-11.58;50.94
44138;BME280;29800;55.942;37.314;2023-02-21T23:01:45;98109.22;;;-11.67;50.99
44138;BME280;29800;55.942;37.314;2023-02-21T23:04:11;98109.34;;;-11.68;51.08
44138;BME280;29800;55.942;37.314;2023-02-21T23:06:54;98120.31;;;-11.63;51.20
44138;BME280;29800;55.942;37.314;2023-02-21T23:09:22;98123.47;;;-11.59;50.54
44138;BME280;29800;55.942;37.314;2023-02-21T23:11:51;98124.84;;;-11.55;50.74
44138;BME280;29800;55.942;37.314;2023-02-21T23:14:18;98122.88;;;-11.53;50.65
44138;BME280;29800;55.942;37.314;2023-02-21T23:16:47;98120.69;;;-11.58;50.79
44138;BME280;29800;55.942;37.314;2023-02-21T23:19:13;98114.06;;;-11.62;50.69
44138;BME280;29800;55.942;37.314;2023-02-21T23:21:45;98129.84;;;-11.52;50.88
44138;BME280;29800;55.942;37.314;2023-02-21T23:24:12;98134.50;;;-11.46;50.61
44138;BME280;29800;55.942;37.314;2023-02-21T23:26:41;98132.47;;;-11.52;50.90
44138;BME280;29800;55.942;37.314;2023-02-21T23:29:13;98139.25;;;-11.50;50.67
44138;BME280;29800;55.942;37.314;2023-02-21T23:31:40;98144.69;;;-11.51;50.35
44138;BME280;29800;55.942;37.314;2023-02-21T23:34:07;98149.06;;;-11.42;49.86
44138;BME280;29800;55.942;37.314;2023-02-21T23:36:35;98145.84;;;-11.36;50.07
44138;BME280;29800;55.942;37.314;2023-02-21T23:39:08;98150.44;;;-11.38;50.33
44138;BME280;29800;55.942;37.314;2023-02-21T23:41:38;98150.34;;;-11.46;49.97
44138;BME280;29800;55.942;37.314;2023-02-21T23:44:11;98154.66;;;-11.45;50.08
44138;BME280;29800;55.942;37.314;2023-02-21T23:46:39;98155.63;;;-11.46;50.04
44138;BME280;29800;55.942;37.314;2023-02-21T23:49:08;98156.84;;;-11.40;49.58
44138;BME280;29800;55.942;37.314;2023-02-21T23:51:39;98170.06;;;-11.40;49.93
44138;BME280;29800;55.942;37.314;2023-02-21T23:54:09;98170.88;;;-11.40;49.38
44138;BME280;29800;55.942;37.314;2023-02-21T23:56:36;98175.06;;;-11.37;49.29
44138;BME280;29800;55.942;37.314;2023-02-21T23:59:04;98179.47;;;-11.38;49.50
